createdAt,value
2022-12-24T00:00:24.129Z,998.03
2022-12-24T00:01:24.099Z,998.05
2022-12-24T00:02:24.226Z,998.08
2022-12-24T00:03:24.288Z,998.09
2022-12-24T00:04:24.067Z,998.08
2022-12-24T00:05:24.053Z,998.06
2022-12-24T00:06:24.110Z,998.03
2022-12-24T00:07:24.087Z,998.05
2022-12-24T00:08:24.028Z,998.02
2022-12-24T00:09:24.023Z,998.11
2022-12-24T00:10:24.027Z,998.08
2022-12-24T00:11:24.010Z,998.06
2022-12-24T00:12:23.999Z,998.02
2022-12-24T00:13:24.010Z,998.04
2022-12-24T00:14:23.997Z,998.04
2022-12-24T00:15:23.993Z,998.05
2022-12-24T00:16:24.015Z,998.05
2022-12-24T00:17:23.974Z,998.02
2022-12-24T00:18:23.967Z,998.02
2022-12-24T00:19:23.968Z,997.99
2022-12-24T00:20:23.954Z,997.94
2022-12-24T00:21:23.949Z,997.97
2022-12-24T00:22:23.944Z,997.96
2022-12-24T00:23:23.952Z,997.94
2022-12-24T00:24:23.931Z,997.94
2022-12-24T00:25:23.938Z,997.92
2022-12-24T00:26:23.940Z,997.89
2022-12-24T00:27:23.933Z,997.89
2022-12-24T00:28:23.906Z,997.96
2022-12-24T00:29:23.902Z,998.00
2022-12-24T00:30:23.888Z,998.00
2022-12-24T00:31:23.994Z,998.04
2022-12-24T00:32:23.872Z,998.08
2022-12-24T00:33:24.821Z,998.05
2022-12-24T00:34:23.885Z,998.08
2022-12-24T00:35:23.862Z,998.11
2022-12-24T00:36:23.887Z,998.07
2022-12-24T00:37:23.860Z,998.02
2022-12-24T00:38:23.855Z,998.06
2022-12-24T00:39:23.828Z,998.03
2022-12-24T00:40:23.829Z,998.04
2022-12-24T00:41:23.819Z,998.04
2022-12-24T00:42:23.810Z,998.04
2022-12-24T00:43:23.800Z,998.12
2022-12-24T00:44:23.827Z,998.12
2022-12-24T00:45:23.787Z,998.08
2022-12-24T00:46:23.863Z,998.12
2022-12-24T00:47:23.774Z,998.17
2022-12-24T00:48:23.782Z,998.18
2022-12-24T00:49:23.759Z,998.12
2022-12-24T00:50:23.764Z,998.19
2022-12-24T00:51:23.812Z,998.16
2022-12-24T00:52:23.744Z,998.20
2022-12-24T00:53:23.764Z,998.19
2022-12-24T00:54:23.731Z,998.20
2022-12-24T00:55:23.733Z,998.20
2022-12-24T00:56:23.740Z,998.22
2022-12-24T00:57:23.773Z,998.23
2022-12-24T00:58:23.714Z,998.26
2022-12-24T00:59:23.734Z,998.27
2022-12-24T01:00:23.699Z,998.31
2022-12-24T01:01:23.984Z,998.33
2022-12-24T01:02:23.863Z,998.32
2022-12-24T01:03:23.738Z,998.33
2022-12-24T01:04:23.666Z,998.36
2022-12-24T01:05:23.659Z,998.35
2022-12-24T01:06:23.662Z,998.35
2022-12-24T01:07:23.645Z,998.34
2022-12-24T01:08:23.652Z,998.32
2022-12-24T01:09:23.667Z,998.37
2022-12-24T01:10:23.648Z,998.31
2022-12-24T01:11:23.670Z,998.34
2022-12-24T01:12:23.615Z,998.40
2022-12-24T01:13:23.598Z,998.36
2022-12-24T01:14:23.631Z,998.38
2022-12-24T01:15:23.611Z,998.40
2022-12-24T01:16:23.704Z,998.47
2022-12-24T01:17:23.656Z,998.44
2022-12-24T01:18:23.578Z,998.45
2022-12-24T01:19:23.566Z,998.46
2022-12-24T01:20:23.555Z,998.46
2022-12-24T01:21:23.559Z,998.43
2022-12-24T01:22:23.548Z,998.42
2022-12-24T01:23:23.537Z,998.45
2022-12-24T01:24:23.535Z,998.44
2022-12-24T01:25:23.530Z,998.52
2022-12-24T01:26:23.525Z,998.51
2022-12-24T01:27:23.518Z,998.50
2022-12-24T01:28:23.508Z,998.49
2022-12-24T01:29:23.506Z,998.51
2022-12-24T01:30:23.492Z,998.49
2022-12-24T01:31:23.552Z,998.50
2022-12-24T01:32:23.481Z,998.47
2022-12-24T01:33:23.530Z,998.49
2022-12-24T01:34:23.466Z,998.49
2022-12-24T01:35:23.461Z,998.49
2022-12-24T01:36:23.463Z,998.53
2022-12-24T01:37:23.444Z,998.50
2022-12-24T01:38:23.461Z,998.50
2022-12-24T01:39:23.452Z,998.51
2022-12-24T01:40:23.424Z,998.54
2022-12-24T01:41:23.439Z,998.57
2022-12-24T01:42:23.412Z,998.55
2022-12-24T01:43:23.409Z,998.55
2022-12-24T01:44:23.406Z,998.51
2022-12-24T01:45:23.393Z,998.52
2022-12-24T01:46:23.510Z,998.54
2022-12-24T01:47:23.383Z,998.56
2022-12-24T01:48:23.379Z,998.63
2022-12-24T01:49:23.382Z,998.65
2022-12-24T01:50:23.369Z,998.62
2022-12-24T01:51:23.394Z,998.67
2022-12-24T01:52:23.345Z,998.66
2022-12-24T01:53:23.343Z,998.66
2022-12-24T01:54:23.328Z,998.67
2022-12-24T01:55:23.339Z,998.69
2022-12-24T01:56:23.324Z,998.69
2022-12-24T01:57:23.313Z,998.71
2022-12-24T01:58:23.308Z,998.72
2022-12-24T01:59:23.326Z,998.71
2022-12-24T02:00:23.325Z,998.72
2022-12-24T02:01:23.445Z,998.77
2022-12-24T02:02:23.435Z,998.75
2022-12-24T02:03:23.345Z,998.74
2022-12-24T02:04:23.279Z,998.77
2022-12-24T02:05:23.264Z,998.81
2022-12-24T02:06:23.260Z,998.83
2022-12-24T02:07:23.258Z,998.88
2022-12-24T02:08:23.246Z,998.90
2022-12-24T02:09:23.257Z,998.89
2022-12-24T02:10:23.241Z,998.92
2022-12-24T02:11:23.214Z,998.94
2022-12-24T02:12:23.213Z,998.91
2022-12-24T02:13:23.209Z,998.96
2022-12-24T02:14:23.206Z,998.96
2022-12-24T02:15:23.200Z,998.94
2022-12-24T02:16:23.239Z,999.04
2022-12-24T02:17:23.191Z,999.04
2022-12-24T02:18:23.175Z,999.07
2022-12-24T02:19:23.196Z,999.02
2022-12-24T02:20:23.156Z,999.02
2022-12-24T02:21:23.166Z,999.05
2022-12-24T02:22:23.175Z,999.06
2022-12-24T02:23:23.163Z,999.10
2022-12-24T02:24:23.245Z,999.14
2022-12-24T02:25:23.135Z,999.13
2022-12-24T02:26:23.232Z,999.20
2022-12-24T02:27:23.150Z,999.18
2022-12-24T02:28:23.145Z,999.21
2022-12-24T02:29:23.137Z,999.27
2022-12-24T02:30:23.096Z,999.28
2022-12-24T02:31:23.229Z,999.27
2022-12-24T02:32:23.083Z,999.32
2022-12-24T02:33:23.089Z,999.28
2022-12-24T02:34:23.070Z,999.33
2022-12-24T02:35:23.071Z,999.33
2022-12-24T02:36:23.056Z,999.32
2022-12-24T02:37:23.053Z,999.29
2022-12-24T02:38:23.057Z,999.36
2022-12-24T02:39:23.050Z,999.33
2022-12-24T02:40:23.033Z,999.38
2022-12-24T02:41:23.045Z,999.37
2022-12-24T02:42:23.012Z,999.37
2022-12-24T02:43:23.034Z,999.41
2022-12-24T02:44:23.019Z,999.39
2022-12-24T02:45:23.003Z,999.44
2022-12-24T02:46:23.026Z,999.43
2022-12-24T02:47:22.986Z,999.42
2022-12-24T02:48:22.996Z,999.48
2022-12-24T02:49:22.989Z,999.47
2022-12-24T02:50:22.958Z,999.50
2022-12-24T02:51:22.984Z,999.56
2022-12-24T02:52:22.954Z,999.50
2022-12-24T02:53:22.956Z,999.57
2022-12-24T02:54:22.932Z,999.53
2022-12-24T02:55:22.962Z,999.58
2022-12-24T02:56:22.922Z,999.56
2022-12-24T02:57:22.919Z,999.57
2022-12-24T02:58:22.911Z,999.59
2022-12-24T02:59:22.961Z,999.63
2022-12-24T03:00:22.962Z,999.61
2022-12-24T03:01:23.015Z,999.60
2022-12-24T03:02:23.014Z,999.58
2022-12-24T03:03:22.879Z,999.62
2022-12-24T03:04:22.891Z,999.60
2022-12-24T03:05:22.873Z,999.54
2022-12-24T03:06:22.863Z,999.57
2022-12-24T03:07:22.857Z,999.58
2022-12-24T03:08:22.857Z,999.63
2022-12-24T03:09:22.856Z,999.62
2022-12-24T03:10:22.839Z,999.59
2022-12-24T03:11:22.840Z,999.65
2022-12-24T03:12:22.822Z,999.65
2022-12-24T03:13:22.928Z,999.64
2022-12-24T03:14:22.823Z,999.72
2022-12-24T03:15:22.800Z,999.68
2022-12-24T03:16:22.871Z,999.71
2022-12-24T03:17:22.809Z,999.69
2022-12-24T03:18:22.784Z,999.70
2022-12-24T03:19:22.774Z,999.75
2022-12-24T03:20:22.773Z,999.75
2022-12-24T03:21:22.760Z,999.75
2022-12-24T03:22:22.747Z,999.76
2022-12-24T03:23:22.768Z,999.76
2022-12-24T03:24:22.737Z,999.75
2022-12-24T03:25:22.739Z,999.75
2022-12-24T03:26:22.745Z,999.79
2022-12-24T03:27:22.731Z,999.80
2022-12-24T03:28:22.724Z,999.80
2022-12-24T03:29:22.730Z,999.80
2022-12-24T03:30:22.697Z,999.83
2022-12-24T03:31:22.764Z,999.84
2022-12-24T03:32:22.686Z,999.86
2022-12-24T03:33:22.689Z,999.84
2022-12-24T03:34:22.676Z,999.86
2022-12-24T03:35:22.685Z,999.86
2022-12-24T03:36:22.679Z,999.92
2022-12-24T03:37:22.666Z,999.92
2022-12-24T03:38:22.645Z,999.99
2022-12-24T03:39:22.657Z,999.97
2022-12-24T03:40:22.652Z,1000.00
2022-12-24T03:41:22.632Z,1000.02
2022-12-24T03:42:22.625Z,1000.02
2022-12-24T03:43:22.630Z,1000.01
2022-12-24T03:44:22.613Z,1000.05
2022-12-24T03:45:22.647Z,1000.05
2022-12-24T03:46:22.823Z,1000.14
2022-12-24T03:47:22.610Z,1000.12
2022-12-24T03:48:26.006Z,1000.13
2022-12-24T03:49:22.593Z,1000.10
2022-12-24T03:50:22.632Z,1000.13
2022-12-24T03:51:22.578Z,1000.16
2022-12-24T03:52:22.567Z,1000.19
2022-12-24T03:53:22.556Z,1000.16
2022-12-24T03:54:22.557Z,1000.23
2022-12-24T03:55:22.541Z,1000.22
2022-12-24T03:56:22.539Z,1000.26
2022-12-24T03:57:22.537Z,1000.23
2022-12-24T03:58:22.539Z,1000.25
2022-12-24T03:59:22.569Z,1000.24
2022-12-24T04:00:22.525Z,1000.26
2022-12-24T04:01:22.656Z,1000.22
2022-12-24T04:02:22.686Z,1000.29
2022-12-24T04:03:22.554Z,1000.30
2022-12-24T04:04:22.486Z,1000.25
2022-12-24T04:05:22.508Z,1000.26
2022-12-24T04:06:22.467Z,1000.25
2022-12-24T04:07:22.465Z,1000.31
2022-12-24T04:08:22.459Z,1000.34
2022-12-24T04:09:22.466Z,1000.34
2022-12-24T04:10:22.444Z,1000.29
2022-12-24T04:11:22.441Z,1000.33
2022-12-24T04:12:22.446Z,1000.34
2022-12-24T04:13:22.435Z,1000.32
2022-12-24T04:14:22.413Z,1000.32
2022-12-24T04:15:22.425Z,1000.32
2022-12-24T04:16:22.473Z,1000.31
2022-12-24T04:17:22.404Z,1000.24
2022-12-24T04:18:22.388Z,1000.24
2022-12-24T04:19:22.393Z,1000.22
2022-12-24T04:20:22.368Z,1000.29
2022-12-24T04:21:22.373Z,1000.29
2022-12-24T04:22:22.366Z,1000.31
2022-12-24T04:23:22.385Z,1000.32
2022-12-24T04:24:22.380Z,1000.35
2022-12-24T04:25:22.344Z,1000.38
2022-12-24T04:26:22.387Z,1000.34
2022-12-24T04:27:26.809Z,1000.39
2022-12-24T04:28:22.324Z,1000.42
2022-12-24T04:29:22.358Z,1000.41
2022-12-24T04:30:22.310Z,1000.47
2022-12-24T04:31:22.352Z,1000.48
2022-12-24T04:32:22.295Z,1000.55
2022-12-24T04:33:22.291Z,1000.58
2022-12-24T04:34:22.346Z,1000.60
2022-12-24T04:35:22.300Z,1000.61
2022-12-24T04:36:22.276Z,1000.62
2022-12-24T04:37:22.280Z,1000.64
2022-12-24T04:38:22.264Z,1000.63
2022-12-24T04:39:22.255Z,1000.68
2022-12-24T04:40:22.240Z,1000.71
2022-12-24T04:41:24.155Z,1000.74
2022-12-24T04:42:22.261Z,1000.74
2022-12-24T04:43:22.228Z,1000.76
2022-12-24T04:44:22.227Z,1000.82
2022-12-24T04:45:22.220Z,1000.82
2022-12-24T04:46:22.356Z,1000.83
2022-12-24T04:47:22.234Z,1000.97
2022-12-24T04:48:22.195Z,1000.93
2022-12-24T04:49:22.207Z,1000.92
2022-12-24T04:50:22.183Z,1000.92
2022-12-24T04:51:22.185Z,1000.92
2022-12-24T04:52:22.165Z,1000.91
2022-12-24T04:53:22.167Z,1000.89
2022-12-24T04:54:22.174Z,1000.88
2022-12-24T04:55:22.144Z,1000.88
2022-12-24T04:56:22.145Z,1000.86
2022-12-24T04:57:22.148Z,1000.89
2022-12-24T04:58:22.133Z,1000.90
2022-12-24T04:59:22.137Z,1000.94
2022-12-24T05:00:22.141Z,1000.90
2022-12-24T05:01:22.204Z,1000.92
2022-12-24T05:02:22.229Z,1000.94
2022-12-24T05:03:22.193Z,1000.94
2022-12-24T05:04:22.096Z,1000.96
2022-12-24T05:05:22.086Z,1000.98
2022-12-24T05:06:22.089Z,1000.99
2022-12-24T05:07:22.096Z,1001.01
2022-12-24T05:08:22.163Z,1001.03
2022-12-24T05:09:22.058Z,1001.03
2022-12-24T05:10:22.070Z,1001.03
2022-12-24T05:11:22.053Z,1001.04
2022-12-24T05:12:22.046Z,1001.00
2022-12-24T05:13:22.046Z,1001.00
2022-12-24T05:14:22.019Z,1001.00
2022-12-24T05:15:22.029Z,1000.97
2022-12-24T05:16:22.127Z,1001.01
2022-12-24T05:17:22.011Z,1000.96
2022-12-24T05:18:22.001Z,1000.98
2022-12-24T05:19:21.997Z,1001.01
2022-12-24T05:20:21.985Z,1001.00
2022-12-24T05:21:22.009Z,1001.00
2022-12-24T05:22:21.974Z,1000.99
2022-12-24T05:23:21.989Z,1001.00
2022-12-24T05:24:21.987Z,1000.98
2022-12-24T05:25:21.962Z,1001.00
2022-12-24T05:26:21.955Z,1001.02
2022-12-24T05:27:21.959Z,1001.04
2022-12-24T05:28:21.989Z,1001.05
2022-12-24T05:29:21.945Z,1000.99
2022-12-24T05:30:21.920Z,1001.02
2022-12-24T05:31:21.978Z,1001.02
2022-12-24T05:32:21.923Z,1001.00
2022-12-24T05:33:21.907Z,1001.01
2022-12-24T05:34:21.898Z,1001.00
2022-12-24T05:35:21.907Z,1001.04
2022-12-24T05:36:21.883Z,1001.00
2022-12-24T05:37:21.879Z,1000.96
2022-12-24T05:38:21.882Z,1001.01
2022-12-24T05:39:21.873Z,1000.94
2022-12-24T05:40:21.869Z,1001.01
2022-12-24T05:41:21.893Z,1001.00
2022-12-24T05:42:21.847Z,1001.01
2022-12-24T05:43:21.840Z,1000.97
2022-12-24T05:44:21.839Z,1001.02
2022-12-24T05:45:21.835Z,1001.05
2022-12-24T05:46:21.931Z,1001.14
2022-12-24T05:47:21.820Z,1001.11
2022-12-24T05:48:21.850Z,1001.18
2022-12-24T05:49:21.813Z,1001.12
2022-12-24T05:50:21.804Z,1001.20
2022-12-24T05:51:21.795Z,1001.20
2022-12-24T05:52:21.787Z,1001.22
2022-12-24T05:53:28.972Z,1001.20
2022-12-24T05:55:25.773Z,1001.25
2022-12-24T05:56:25.784Z,1001.26
2022-12-24T05:58:29.786Z,1001.24
2022-12-24T05:59:29.768Z,1001.31
2022-12-24T06:01:33.820Z,1001.33
2022-12-24T06:02:33.810Z,1001.37
2022-12-24T06:04:29.047Z,1001.40
2022-12-24T06:05:26.629Z,1001.42
2022-12-24T06:07:30.622Z,1001.41
2022-12-24T06:08:30.597Z,1001.38
2022-12-24T06:10:35.057Z,1001.34
2022-12-24T06:11:34.580Z,1001.41
2022-12-24T06:13:38.562Z,1001.43
2022-12-24T06:14:38.547Z,1001.42
2022-12-24T06:16:42.552Z,1001.43
2022-12-24T06:17:42.506Z,1001.46
2022-12-24T06:18:42.504Z,1001.47
2022-12-24T06:19:42.491Z,1001.49
2022-12-24T06:20:42.501Z,1001.57
2022-12-24T06:21:42.493Z,1001.59
2022-12-24T06:22:42.490Z,1001.62
2022-12-24T06:23:42.476Z,1001.61
2022-12-24T06:24:42.463Z,1001.63
2022-12-24T06:25:42.467Z,1001.65
2022-12-24T06:26:42.456Z,1001.69
2022-12-24T06:27:42.447Z,1001.65
2022-12-24T06:28:42.441Z,1001.64
2022-12-24T06:29:42.425Z,1001.62
2022-12-24T06:30:42.438Z,1001.65
2022-12-24T06:31:42.522Z,1001.65
2022-12-24T06:32:42.422Z,1001.69
2022-12-24T06:33:42.402Z,1001.69
2022-12-24T06:34:42.402Z,1001.74
2022-12-24T06:35:42.394Z,1001.74
2022-12-24T06:36:42.401Z,1001.75
2022-12-24T06:37:42.478Z,1001.81
2022-12-24T06:38:42.390Z,1001.84
2022-12-24T06:39:42.369Z,1001.85
2022-12-24T06:40:42.384Z,1001.84
2022-12-24T06:41:42.367Z,1001.90
2022-12-24T06:42:42.358Z,1001.83
2022-12-24T06:43:42.336Z,1001.82
2022-12-24T06:44:42.349Z,1001.84
2022-12-24T06:45:42.336Z,1001.81
2022-12-24T06:46:42.491Z,1001.80
2022-12-24T06:47:42.348Z,1001.78
2022-12-24T06:48:42.321Z,1001.79
2022-12-24T06:49:42.324Z,1001.81
2022-12-24T06:50:42.415Z,1001.77
2022-12-24T06:51:42.301Z,1001.82
2022-12-24T06:52:42.315Z,1001.82
2022-12-24T06:53:42.275Z,1001.85
2022-12-24T06:54:42.332Z,1001.86
2022-12-24T06:55:42.267Z,1001.86
2022-12-24T06:56:42.255Z,1001.89
2022-12-24T06:57:42.251Z,1001.92
2022-12-24T06:58:42.248Z,1001.96
2022-12-24T06:59:42.241Z,1001.96
2022-12-24T07:00:42.262Z,1001.99
2022-12-24T07:01:42.342Z,1002.03
2022-12-24T07:02:42.302Z,1002.09
2022-12-24T07:03:42.302Z,1002.13
2022-12-24T07:04:42.239Z,1002.16
2022-12-24T07:05:42.228Z,1002.15
2022-12-24T07:06:42.237Z,1002.14
2022-12-24T07:07:42.195Z,1002.15
2022-12-24T07:08:42.189Z,1002.11
2022-12-24T07:09:42.175Z,1002.13
2022-12-24T07:10:42.171Z,1002.10
2022-12-24T07:11:42.186Z,1002.09
2022-12-24T07:12:42.149Z,1002.12
2022-12-24T07:13:42.144Z,1002.16
2022-12-24T07:14:42.169Z,1002.16
2022-12-24T07:15:42.266Z,1002.20
2022-12-24T07:16:42.254Z,1002.24
2022-12-24T07:17:42.171Z,1002.23
2022-12-24T07:18:42.128Z,1002.29
2022-12-24T07:19:42.102Z,1002.26
2022-12-24T07:20:42.098Z,1002.30
2022-12-24T07:21:42.096Z,1002.31
2022-12-24T07:22:42.088Z,1002.29
2022-12-24T07:23:42.090Z,1002.38
2022-12-24T07:24:42.071Z,1002.41
2022-12-24T07:25:42.056Z,1002.45
2022-12-24T07:26:42.069Z,1002.47
2022-12-24T07:27:42.048Z,1002.48
2022-12-24T07:28:42.041Z,1002.45
2022-12-24T07:29:42.040Z,1002.49
2022-12-24T07:30:42.054Z,1002.51
2022-12-24T07:31:42.070Z,1002.50
2022-12-24T07:32:42.046Z,1002.51
2022-12-24T07:33:42.017Z,1002.49
2022-12-24T07:34:42.009Z,1002.54
2022-12-24T07:35:42.062Z,1002.53
2022-12-24T07:36:42.003Z,1002.52
2022-12-24T07:37:42.033Z,1002.48
2022-12-24T07:38:42.015Z,1002.51
2022-12-24T07:39:41.983Z,1002.46
2022-12-24T07:40:41.961Z,1002.48
2022-12-24T07:41:42.110Z,1002.54
2022-12-24T07:42:41.961Z,1002.52
2022-12-24T07:43:41.955Z,1002.52
2022-12-24T07:44:41.955Z,1002.55
2022-12-24T07:45:41.926Z,1002.57
2022-12-24T07:46:41.993Z,1002.63
2022-12-24T07:47:41.928Z,1002.67
2022-12-24T07:48:41.934Z,1002.70
2022-12-24T07:49:41.925Z,1002.74
2022-12-24T07:50:41.926Z,1002.73
2022-12-24T07:51:41.885Z,1002.74
2022-12-24T07:52:41.901Z,1002.76
2022-12-24T07:53:41.905Z,1002.74
2022-12-24T07:54:41.879Z,1002.77
2022-12-24T07:55:41.872Z,1002.82
2022-12-24T07:56:41.857Z,1002.88
2022-12-24T07:57:41.845Z,1002.80
2022-12-24T07:58:41.866Z,1002.83
2022-12-24T07:59:41.837Z,1002.85
2022-12-24T08:00:41.835Z,1002.79
2022-12-24T08:01:42.038Z,1002.85
2022-12-24T08:02:41.950Z,1002.84
2022-12-24T08:03:41.900Z,1002.83
2022-12-24T08:04:41.821Z,1002.86
2022-12-24T08:05:41.800Z,1002.82
2022-12-24T08:06:41.815Z,1002.82
2022-12-24T08:07:41.791Z,1002.80
2022-12-24T08:08:41.786Z,1002.76
2022-12-24T08:09:41.777Z,1002.76
2022-12-24T08:10:41.774Z,1002.79
2022-12-24T08:11:46.300Z,1002.77
2022-12-24T08:12:41.768Z,1002.79
2022-12-24T08:13:41.749Z,1002.77
2022-12-24T08:14:41.751Z,1002.78
2022-12-24T08:15:41.745Z,1002.79
2022-12-24T08:16:41.857Z,1002.79
2022-12-24T08:17:41.721Z,1002.85
2022-12-24T08:18:41.729Z,1002.84
2022-12-24T08:19:41.726Z,1002.85
2022-12-24T08:20:41.730Z,1002.89
2022-12-24T08:21:41.689Z,1002.88
2022-12-24T08:22:41.722Z,1002.88
2022-12-24T08:23:41.675Z,1002.82
2022-12-24T08:24:41.673Z,1002.79
2022-12-24T08:25:41.681Z,1002.86
2022-12-24T08:26:41.664Z,1002.89
2022-12-24T08:27:41.679Z,1002.90
2022-12-24T08:28:41.670Z,1002.94
2022-12-24T08:29:41.644Z,1002.96
2022-12-24T08:30:41.645Z,1003.00
2022-12-24T08:31:41.717Z,1003.03
2022-12-24T08:32:41.653Z,1003.07
2022-12-24T08:33:41.629Z,1003.06
2022-12-24T08:34:41.653Z,1003.02
2022-12-24T08:35:41.601Z,1003.04
2022-12-24T08:36:41.613Z,1003.06
2022-12-24T08:37:41.607Z,1003.12
2022-12-24T08:38:41.590Z,1003.08
2022-12-24T08:39:41.579Z,1003.08
2022-12-24T08:40:41.571Z,1003.08
2022-12-24T08:41:41.568Z,1003.09
2022-12-24T08:42:41.627Z,1003.10
2022-12-24T08:43:41.551Z,1003.06
2022-12-24T08:44:41.551Z,1003.13
2022-12-24T08:45:41.621Z,1003.18
2022-12-24T08:46:41.588Z,1003.18
2022-12-24T08:47:41.531Z,1003.25
2022-12-24T08:48:41.524Z,1003.23
2022-12-24T08:49:41.542Z,1003.25
2022-12-24T08:50:41.503Z,1003.21
2022-12-24T08:51:41.505Z,1003.23
2022-12-24T08:52:41.486Z,1003.24
2022-12-24T08:53:41.503Z,1003.25
2022-12-24T08:54:41.485Z,1003.26
2022-12-24T08:55:41.468Z,1003.29
2022-12-24T08:56:41.472Z,1003.28
2022-12-24T08:57:41.470Z,1003.26
2022-12-24T08:58:41.464Z,1003.28
2022-12-24T08:59:41.451Z,1003.25
2022-12-24T09:00:41.480Z,1003.25
2022-12-24T09:01:41.532Z,1003.24
2022-12-24T09:02:41.644Z,1003.26
2022-12-24T09:03:41.470Z,1003.30
2022-12-24T09:04:41.421Z,1003.36
2022-12-24T09:05:41.414Z,1003.36
2022-12-24T09:06:41.399Z,1003.37
2022-12-24T09:07:41.405Z,1003.39
2022-12-24T09:08:41.396Z,1003.43
2022-12-24T09:09:41.386Z,1003.42
2022-12-24T09:10:41.382Z,1003.39
2022-12-24T09:11:41.398Z,1003.44
2022-12-24T09:12:41.369Z,1003.42
2022-12-24T09:13:41.360Z,1003.50
2022-12-24T09:14:41.367Z,1003.58
2022-12-24T09:15:41.358Z,1003.62
2022-12-24T09:16:41.452Z,1003.60
2022-12-24T09:17:41.336Z,1003.62
2022-12-24T09:18:41.364Z,1003.61
2022-12-24T09:19:41.321Z,1003.62
2022-12-24T09:20:46.562Z,1003.69
2022-12-24T09:21:41.294Z,1003.68
2022-12-24T09:22:41.305Z,1003.69
2022-12-24T09:23:41.302Z,1003.65
2022-12-24T09:24:41.304Z,1003.65
2022-12-24T09:25:41.288Z,1003.66
2022-12-24T09:26:41.284Z,1003.66
2022-12-24T09:27:41.264Z,1003.66
2022-12-24T09:28:41.269Z,1003.72
2022-12-24T09:29:41.241Z,1003.72
2022-12-24T09:30:41.258Z,1003.73
2022-12-24T09:31:41.268Z,1003.76
2022-12-24T09:32:41.249Z,1003.78
2022-12-24T09:33:41.228Z,1003.77
2022-12-24T09:34:41.226Z,1003.82
2022-12-24T09:35:41.207Z,1003.84
2022-12-24T09:36:41.236Z,1003.81
2022-12-24T09:37:41.201Z,1003.86
2022-12-24T09:38:41.226Z,1003.84
2022-12-24T09:39:41.215Z,1003.90
2022-12-24T09:40:41.200Z,1003.91
2022-12-24T09:41:41.192Z,1003.90
2022-12-24T09:42:41.182Z,1003.91
2022-12-24T09:43:41.171Z,1003.91
2022-12-24T09:44:41.156Z,1003.91
2022-12-24T09:45:41.243Z,1003.94
2022-12-24T09:46:41.162Z,1003.99
2022-12-24T09:47:41.135Z,1004.01
2022-12-24T09:48:41.143Z,1004.06
2022-12-24T09:49:41.150Z,1004.07
2022-12-24T09:50:41.117Z,1004.09
2022-12-24T09:51:41.139Z,1004.06
2022-12-24T09:52:41.115Z,1004.08
2022-12-24T09:53:41.100Z,1004.13
2022-12-24T09:54:45.978Z,1004.12
2022-12-24T09:55:41.087Z,1004.15
2022-12-24T09:56:41.087Z,1004.15
2022-12-24T09:57:41.079Z,1004.17
2022-12-24T09:58:41.069Z,1004.19
2022-12-24T09:59:41.066Z,1004.17
2022-12-24T10:00:46.050Z,1004.16
2022-12-24T10:01:41.163Z,1004.22
2022-12-24T10:02:41.208Z,1004.28
2022-12-24T10:03:41.109Z,1004.32
2022-12-24T10:04:41.027Z,1004.35
2022-12-24T10:05:41.034Z,1004.32
2022-12-24T10:06:41.017Z,1004.36
2022-12-24T10:07:41.013Z,1004.36
2022-12-24T10:08:41.000Z,1004.39
2022-12-24T10:09:40.993Z,1004.42
2022-12-24T10:10:41.025Z,1004.41
2022-12-24T10:11:40.997Z,1004.39
2022-12-24T10:12:45.928Z,1004.48
2022-12-24T10:13:40.975Z,1004.44
2022-12-24T10:14:40.966Z,1004.45
2022-12-24T10:15:40.987Z,1004.44
2022-12-24T10:16:41.000Z,1004.44
2022-12-24T10:17:40.953Z,1004.42
2022-12-24T10:18:45.615Z,1004.43
2022-12-24T10:19:40.951Z,1004.45
2022-12-24T10:20:40.943Z,1004.45
2022-12-24T10:21:40.948Z,1004.50
2022-12-24T10:22:40.918Z,1004.50
2022-12-24T10:23:40.924Z,1004.54
2022-12-24T10:24:46.372Z,1004.58
2022-12-24T10:25:40.905Z,1004.57
2022-12-24T10:26:40.918Z,1004.56
2022-12-24T10:27:40.895Z,1004.59
2022-12-24T10:28:40.902Z,1004.57
2022-12-24T10:29:40.889Z,1004.56
2022-12-24T10:30:40.931Z,1004.63
2022-12-24T10:31:40.875Z,1004.60
2022-12-24T10:32:40.861Z,1004.65
2022-12-24T10:33:40.890Z,1004.72
2022-12-24T10:34:40.851Z,1004.74
2022-12-24T10:35:40.869Z,1004.74
2022-12-24T10:36:40.834Z,1004.70
2022-12-24T10:37:40.850Z,1004.72
2022-12-24T10:38:40.824Z,1004.78
2022-12-24T10:39:40.829Z,1004.79
2022-12-24T10:40:40.816Z,1004.80
2022-12-24T10:41:40.819Z,1004.83
2022-12-24T10:42:46.292Z,1004.82
2022-12-24T10:43:40.856Z,1004.84
2022-12-24T10:44:40.810Z,1004.83
2022-12-24T10:45:40.874Z,1004.79
2022-12-24T10:46:40.876Z,1004.82
2022-12-24T10:47:40.782Z,1004.76
2022-12-24T10:48:46.404Z,1004.77
2022-12-24T10:49:40.799Z,1004.79
2022-12-24T10:50:40.770Z,1004.84
2022-12-24T10:51:40.765Z,1004.85
2022-12-24T10:52:40.747Z,1004.85
2022-12-24T10:53:40.736Z,1004.90
2022-12-24T10:54:40.764Z,1004.85
2022-12-24T10:55:40.725Z,1004.86
2022-12-24T10:56:40.724Z,1004.86
2022-12-24T10:57:40.720Z,1004.85
2022-12-24T10:58:40.731Z,1004.90
2022-12-24T10:59:40.714Z,1004.92
2022-12-24T11:00:40.707Z,1004.95
2022-12-24T11:01:40.842Z,1004.98
2022-12-24T11:02:40.911Z,1005.00
2022-12-24T11:03:40.727Z,1005.02
2022-12-24T11:04:40.670Z,1005.06
2022-12-24T11:05:40.666Z,1005.04
2022-12-24T11:06:44.719Z,1005.08
2022-12-24T11:07:40.682Z,1005.07
2022-12-24T11:08:40.687Z,1005.07
2022-12-24T11:09:40.637Z,1005.14
2022-12-24T11:10:40.638Z,1005.13
2022-12-24T11:11:40.627Z,1005.09
2022-12-24T11:12:40.636Z,1005.08
2022-12-24T11:13:40.610Z,1005.13
2022-12-24T11:14:40.662Z,1005.13
2022-12-24T11:15:40.627Z,1005.14
2022-12-24T11:16:40.609Z,1005.16
2022-12-24T11:17:40.610Z,1005.21
2022-12-24T11:18:45.137Z,1005.18
2022-12-24T11:19:40.604Z,1005.18
2022-12-24T11:20:40.602Z,1005.14
2022-12-24T11:21:40.578Z,1005.14
2022-12-24T11:22:40.584Z,1005.10
2022-12-24T11:23:40.565Z,1005.13
2022-12-24T11:24:45.093Z,1005.12
2022-12-24T11:25:40.553Z,1005.07
2022-12-24T11:26:40.551Z,1005.03
2022-12-24T11:27:40.547Z,1005.04
2022-12-24T11:28:40.566Z,1005.04
2022-12-24T11:29:40.525Z,1005.08
2022-12-24T11:30:40.581Z,1005.09
2022-12-24T11:31:40.530Z,1005.13
2022-12-24T11:32:40.518Z,1005.19
2022-12-24T11:33:40.504Z,1005.12
2022-12-24T11:34:40.491Z,1005.16
2022-12-24T11:35:40.491Z,1005.15
2022-12-24T11:36:40.499Z,1005.14
2022-12-24T11:37:40.556Z,1005.20
2022-12-24T11:38:40.471Z,1005.23
2022-12-24T11:39:40.480Z,1005.26
2022-12-24T11:40:40.579Z,1005.23
2022-12-24T11:41:40.467Z,1005.22
2022-12-24T11:42:40.449Z,1005.19
2022-12-24T11:43:40.450Z,1005.23
2022-12-24T11:44:40.439Z,1005.23
2022-12-24T11:45:40.441Z,1005.20
2022-12-24T11:46:40.455Z,1005.26
2022-12-24T11:47:40.486Z,1005.20
2022-12-24T11:48:40.412Z,1005.31
2022-12-24T11:49:40.415Z,1005.32
2022-12-24T11:50:40.426Z,1005.24
2022-12-24T11:51:40.420Z,1005.28
2022-12-24T11:52:40.421Z,1005.29
2022-12-24T11:53:40.392Z,1005.36
2022-12-24T11:54:40.415Z,1005.45
2022-12-24T11:55:40.378Z,1005.41
2022-12-24T11:56:40.424Z,1005.40
2022-12-24T11:57:40.378Z,1005.40
2022-12-24T11:58:40.359Z,1005.41
2022-12-24T11:59:40.357Z,1005.46
2022-12-24T12:00:40.349Z,1005.46
2022-12-24T12:01:40.436Z,1005.48
2022-12-24T12:02:40.396Z,1005.51
2022-12-24T12:03:40.465Z,1005.48
2022-12-24T12:04:40.327Z,1005.47
2022-12-24T12:05:40.335Z,1005.41
2022-12-24T12:06:40.328Z,1005.43
2022-12-24T12:07:40.313Z,1005.43
2022-12-24T12:08:40.323Z,1005.45
2022-12-24T12:09:40.308Z,1005.45
2022-12-24T12:10:40.305Z,1005.47
2022-12-24T12:11:40.335Z,1005.51
2022-12-24T12:12:40.298Z,1005.49
2022-12-24T12:13:40.288Z,1005.53
2022-12-24T12:14:40.272Z,1005.51
2022-12-24T12:15:40.287Z,1005.56
2022-12-24T12:16:40.323Z,1005.56
2022-12-24T12:17:40.253Z,1005.51
2022-12-24T12:18:40.253Z,1005.59
2022-12-24T12:19:40.244Z,1005.61
2022-12-24T12:20:40.247Z,1005.64